sensor_id;sensor_type;location;lat;lon;timestamp;temperature;humidity
19908;DHT22;10116;53.112;7.356;2023-06-19T00:01:43;28.60;99.90
19908;DHT22;10116;53.112;7.356;2023-06-19T00:04:10;28.60;99.90
19908;DHT22;10116;53.112;7.356;2023-06-19T00:06:36;28.60;99.90
19908;DHT22;10116;53.112;7.356;2023-06-19T00:09:02;28.50;99.90
19908;DHT22;10116;53.112;7.356;2023-06-19T00:11:28;28.50;99.90
19908;DHT22;10116;53.112;7.356;2023-06-19T00:13:53;28.50;99.90
19908;DHT22;10116;53.112;7.356;2023-06-19T00:16:19;28.50;99.90
19908;DHT22;10116;53.112;7.356;2023-06-19T00:18:45;28.50;99.90
19908;DHT22;10116;53.112;7.356;2023-06-19T00:21:11;28.50;99.90
19908;DHT22;10116;53.112;7.356;2023-06-19T00:23:37;28.50;99.90
19908;DHT22;10116;53.112;7.356;2023-06-19T00:26:03;28.50;99.90
19908;DHT22;10116;53.112;7.356;2023-06-19T00:28:29;28.50;99.90
19908;DHT22;10116;53.112;7.356;2023-06-19T00:30:55;28.50;99.90
19908;DHT22;10116;53.112;7.356;2023-06-19T00:33:21;28.50;99.90
19908;DHT22;10116;53.112;7.356;2023-06-19T00:35:47;28.50;99.90
19908;DHT22;10116;53.112;7.356;2023-06-19T00:38:13;28.50;99.90
19908;DHT22;10116;53.112;7.356;2023-06-19T00:40:39;28.50;98.30
19908;DHT22;10116;53.112;7.356;2023-06-19T00:43:06;28.50;99.90
19908;DHT22;10116;53.112;7.356;2023-06-19T00:45:31;28.50;99.90
19908;DHT22;10116;53.112;7.356;2023-06-19T00:47:58;28.50;99.90
19908;DHT22;10116;53.112;7.356;2023-06-19T00:50:25;28.50;99.90
19908;DHT22;10116;53.112;7.356;2023-06-19T00:52:50;28.50;99.90
19908;DHT22;10116;53.112;7.356;2023-06-19T00:55:17;28.50;99.90
19908;DHT22;10116;53.112;7.356;2023-06-19T00:57:43;28.50;99.90
19908;DHT22;10116;53.112;7.356;2023-06-19T01:00:10;28.50;99.90
19908;DHT22;10116;53.112;7.356;2023-06-19T01:02:38;28.50;99.90
19908;DHT22;10116;53.112;7.356;2023-06-19T01:05:04;28.50;99.90
19908;DHT22;10116;53.112;7.356;2023-06-19T01:07:50;28.50;99.90
19908;DHT22;10116;53.112;7.356;2023-06-19T01:10:38;28.50;99.90
19908;DHT22;10116;53.112;7.356;2023-06-19T01:13:12;28.50;99.90
19908;DHT22;10116;53.112;7.356;2023-06-19T01:15:39;28.40;99.90
19908;DHT22;10116;53.112;7.356;2023-06-19T01:18:07;28.40;99.90
19908;DHT22;10116;53.112;7.356;2023-06-19T01:20:33;28.40;99.90
19908;DHT22;10116;53.112;7.356;2023-06-19T01:23:07;28.40;99.90
19908;DHT22;10116;53.112;7.356;2023-06-19T01:25:32;28.40;99.90
19908;DHT22;10116;53.112;7.356;2023-06-19T01:27:58;28.40;99.90
19908;DHT22;10116;53.112;7.356;2023-06-19T01:30:23;28.40;99.90
19908;DHT22;10116;53.112;7.356;2023-06-19T01:35:35;28.40;99.90
19908;DHT22;10116;53.112;7.356;2023-06-19T01:38:01;28.40;99.90
19908;DHT22;10116;53.112;7.356;2023-06-19T01:40:29;28.40;99.90
19908;DHT22;10116;53.112;7.356;2023-06-19T01:42:58;28.40;99.90
19908;DHT22;10116;53.112;7.356;2023-06-19T01:45:29;28.40;99.90
19908;DHT22;10116;53.112;7.356;2023-06-19T01:47:55;28.40;99.90
19908;DHT22;10116;53.112;7.356;2023-06-19T01:50:22;28.40;99.90
19908;DHT22;10116;53.112;7.356;2023-06-19T01:52:47;28.30;99.90
19908;DHT22;10116;53.112;7.356;2023-06-19T01:55:14;28.30;99.90
19908;DHT22;10116;53.112;7.356;2023-06-19T01:57:39;28.30;99.90
19908;DHT22;10116;53.112;7.356;2023-06-19T02:00:06;28.30;99.90
19908;DHT22;10116;53.112;7.356;2023-06-19T02:02:38;28.30;99.90
19908;DHT22;10116;53.112;7.356;2023-06-19T02:05:04;28.30;99.90
19908;DHT22;10116;53.112;7.356;2023-06-19T02:07:30;28.30;99.90
19908;DHT22;10116;53.112;7.356;2023-06-19T02:09:57;28.30;99.90
19908;DHT22;10116;53.112;7.356;2023-06-19T02:12:22;28.30;99.90
19908;DHT22;10116;53.112;7.356;2023-06-19T02:14:48;28.30;99.90
19908;DHT22;10116;53.112;7.356;2023-06-19T02:17:13;28.30;99.90
19908;DHT22;10116;53.112;7.356;2023-06-19T02:19:39;28.30;99.90
19908;DHT22;10116;53.112;7.356;2023-06-19T02:22:05;28.30;99.90
19908;DHT22;10116;53.112;7.356;2023-06-19T02:24:32;28.30;99.90
19908;DHT22;10116;53.112;7.356;2023-06-19T02:26:57;28.30;99.90
19908;DHT22;10116;53.112;7.356;2023-06-19T02:29:24;28.30;99.90
19908;DHT22;10116;53.112;7.356;2023-06-19T02:31:50;28.30;99.90
19908;DHT22;10116;53.112;7.356;2023-06-19T02:34:16;28.20;99.90
19908;DHT22;10116;53.112;7.356;2023-06-19T02:36:42;28.20;99.90
19908;DHT22;10116;53.112;7.356;2023-06-19T02:39:08;28.20;99.90
19908;DHT22;10116;53.112;7.356;2023-06-19T02:41:34;28.30;99.90
19908;DHT22;10116;53.112;7.356;2023-06-19T02:44:00;28.20;99.90
19908;DHT22;10116;53.112;7.356;2023-06-19T02:46:25;28.20;99.90
19908;DHT22;10116;53.112;7.356;2023-06-19T02:48:51;28.20;99.90
19908;DHT22;10116;53.112;7.356;2023-06-19T02:51:17;28.20;99.90
19908;DHT22;10116;53.112;7.356;2023-06-19T02:53:42;28.20;99.90
19908;DHT22;10116;53.112;7.356;2023-06-19T02:56:09;28.20;99.90
19908;DHT22;10116;53.112;7.356;2023-06-19T02:58:35;28.20;99.90
19908;DHT22;10116;53.112;7.356;2023-06-19T03:01:03;28.20;99.90
19908;DHT22;10116;53.112;7.356;2023-06-19T03:03:29;28.20;99.90
19908;DHT22;10116;53.112;7.356;2023-06-19T03:05:56;28.20;99.90
19908;DHT22;10116;53.112;7.356;2023-06-19T03:08:21;28.20;99.90
19908;DHT22;10116;53.112;7.356;2023-06-19T03:10:47;28.20;99.90
19908;DHT22;10116;53.112;7.356;2023-06-19T03:13:13;28.20;99.90
19908;DHT22;10116;53.112;7.356;2023-06-19T03:15:39;28.20;99.90
19908;DHT22;10116;53.112;7.356;2023-06-19T03:18:04;28.20;99.90
19908;DHT22;10116;53.112;7.356;2023-06-19T03:20:32;28.20;99.90
19908;DHT22;10116;53.112;7.356;2023-06-19T03:22:58;28.20;99.90
19908;DHT22;10116;53.112;7.356;2023-06-19T03:25:24;28.20;99.90
19908;DHT22;10116;53.112;7.356;2023-06-19T03:27:49;28.20;99.90
19908;DHT22;10116;53.112;7.356;2023-06-19T03:30:15;28.20;99.90
19908;DHT22;10116;53.112;7.356;2023-06-19T03:32:44;28.20;99.90
19908;DHT22;10116;53.112;7.356;2023-06-19T03:35:09;28.30;99.90
19908;DHT22;10116;53.112;7.356;2023-06-19T03:37:36;28.30;99.90
19908;DHT22;10116;53.112;7.356;2023-06-19T03:40:01;28.40;99.90
19908;DHT22;10116;53.112;7.356;2023-06-19T03:42:28;28.40;99.90
19908;DHT22;10116;53.112;7.356;2023-06-19T03:44:54;28.40;99.90
19908;DHT22;10116;53.112;7.356;2023-06-19T03:47:21;28.50;99.90
19908;DHT22;10116;53.112;7.356;2023-06-19T03:49:47;28.50;99.90
19908;DHT22;10116;53.112;7.356;2023-06-19T03:52:14;28.50;99.90
19908;DHT22;10116;53.112;7.356;2023-06-19T03:54:39;28.50;99.90
19908;DHT22;10116;53.112;7.356;2023-06-19T03:57:05;28.60;99.90
19908;DHT22;10116;53.112;7.356;2023-06-19T03:59:31;28.60;99.90
19908;DHT22;10116;53.112;7.356;2023-06-19T04:01:57;28.60;99.90
19908;DHT22;10116;53.112;7.356;2023-06-19T04:04:23;28.60;99.90
19908;DHT22;10116;53.112;7.356;2023-06-19T04:06:48;28.60;99.90
19908;DHT22;10116;53.112;7.356;2023-06-19T04:09:14;28.60;99.90
19908;DHT22;10116;53.112;7.356;2023-06-19T04:11:39;28.60;99.90
19908;DHT22;10116;53.112;7.356;2023-06-19T04:14:05;28.60;99.90
19908;DHT22;10116;53.112;7.356;2023-06-19T04:16:30;28.60;99.90
19908;DHT22;10116;53.112;7.356;2023-06-19T04:18:56;28.60;99.90
19908;DHT22;10116;53.112;7.356;2023-06-19T04:21:21;28.60;99.90
19908;DHT22;10116;53.112;7.356;2023-06-19T04:23:47;28.70;99.90
19908;DHT22;10116;53.112;7.356;2023-06-19T04:26:13;28.70;99.90
19908;DHT22;10116;53.112;7.356;2023-06-19T04:28:38;28.70;99.90
19908;DHT22;10116;53.112;7.356;2023-06-19T04:31:04;28.70;99.90
19908;DHT22;10116;53.112;7.356;2023-06-19T04:33:30;28.70;99.90
19908;DHT22;10116;53.112;7.356;2023-06-19T04:35:57;28.70;99.90
19908;DHT22;10116;53.112;7.356;2023-06-19T04:38:23;28.70;99.90
19908;DHT22;10116;53.112;7.356;2023-06-19T04:40:52;28.70;99.90
19908;DHT22;10116;53.112;7.356;2023-06-19T04:43:18;28.70;99.90
19908;DHT22;10116;53.112;7.356;2023-06-19T04:45:44;28.70;99.90
19908;DHT22;10116;53.112;7.356;2023-06-19T04:48:09;28.70;99.90
19908;DHT22;10116;53.112;7.356;2023-06-19T04:50:35;28.70;99.90
19908;DHT22;10116;53.112;7.356;2023-06-19T04:53:01;28.70;99.90
19908;DHT22;10116;53.112;7.356;2023-06-19T04:55:27;28.70;99.90
19908;DHT22;10116;53.112;7.356;2023-06-19T04:57:52;28.70;99.90
19908;DHT22;10116;53.112;7.356;2023-06-19T05:00:18;28.70;99.90
19908;DHT22;10116;53.112;7.356;2023-06-19T05:02:45;28.70;99.90
19908;DHT22;10116;53.112;7.356;2023-06-19T05:05:13;28.70;99.90
19908;DHT22;10116;53.112;7.356;2023-06-19T05:07:39;28.70;99.90
19908;DHT22;10116;53.112;7.356;2023-06-19T05:10:05;28.70;99.90
19908;DHT22;10116;53.112;7.356;2023-06-19T05:12:30;28.70;99.90
19908;DHT22;10116;53.112;7.356;2023-06-19T05:14:56;28.70;99.90
19908;DHT22;10116;53.112;7.356;2023-06-19T05:17:22;28.70;99.90
19908;DHT22;10116;53.112;7.356;2023-06-19T05:19:48;28.70;99.90
19908;DHT22;10116;53.112;7.356;2023-06-19T05:22:13;28.70;99.90
19908;DHT22;10116;53.112;7.356;2023-06-19T05:24:39;28.80;99.90
19908;DHT22;10116;53.112;7.356;2023-06-19T05:27:05;28.80;99.90
19908;DHT22;10116;53.112;7.356;2023-06-19T05:29:31;28.90;99.90
19908;DHT22;10116;53.112;7.356;2023-06-19T05:31:57;29.00;99.90
19908;DHT22;10116;53.112;7.356;2023-06-19T05:34:22;29.00;99.90
19908;DHT22;10116;53.112;7.356;2023-06-19T05:36:48;29.10;99.90
19908;DHT22;10116;53.112;7.356;2023-06-19T05:39:14;29.10;99.90
19908;DHT22;10116;53.112;7.356;2023-06-19T05:41:40;29.10;99.90
19908;DHT22;10116;53.112;7.356;2023-06-19T05:44:05;29.10;99.90
19908;DHT22;10116;53.112;7.356;2023-06-19T05:46:31;29.10;99.90
19908;DHT22;10116;53.112;7.356;2023-06-19T05:48:57;29.20;99.90
19908;DHT22;10116;53.112;7.356;2023-06-19T05:51:22;29.20;99.90
19908;DHT22;10116;53.112;7.356;2023-06-19T05:53:48;29.20;99.90
19908;DHT22;10116;53.112;7.356;2023-06-19T05:56:15;29.20;99.90
19908;DHT22;10116;53.112;7.356;2023-06-19T05:58:41;29.20;99.90
19908;DHT22;10116;53.112;7.356;2023-06-19T06:01:06;29.20;99.90
19908;DHT22;10116;53.112;7.356;2023-06-19T06:03:33;29.10;99.90
19908;DHT22;10116;53.112;7.356;2023-06-19T06:05:59;29.10;99.90
19908;DHT22;10116;53.112;7.356;2023-06-19T06:08:31;29.10;99.90
19908;DHT22;10116;53.112;7.356;2023-06-19T06:10:57;29.00;99.90
19908;DHT22;10116;53.112;7.356;2023-06-19T06:13:23;29.00;99.90
19908;DHT22;10116;53.112;7.356;2023-06-19T06:15:50;29.00;99.90
19908;DHT22;10116;53.112;7.356;2023-06-19T06:18:15;29.00;99.90
19908;DHT22;10116;53.112;7.356;2023-06-19T06:20:41;29.00;99.90
19908;DHT22;10116;53.112;7.356;2023-06-19T06:23:07;28.90;99.90
19908;DHT22;10116;53.112;7.356;2023-06-19T06:25:32;28.90;99.90
19908;DHT22;10116;53.112;7.356;2023-06-19T06:27:58;28.90;99.90
19908;DHT22;10116;53.112;7.356;2023-06-19T06:30:23;28.90;99.90
19908;DHT22;10116;53.112;7.356;2023-06-19T06:32:49;28.80;99.90
19908;DHT22;10116;53.112;7.356;2023-06-19T06:35:15;28.80;99.90
19908;DHT22;10116;53.112;7.356;2023-06-19T06:37:41;28.80;99.90
19908;DHT22;10116;53.112;7.356;2023-06-19T06:40:07;28.80;99.90
19908;DHT22;10116;53.112;7.356;2023-06-19T06:42:36;28.80;99.90
19908;DHT22;10116;53.112;7.356;2023-06-19T06:45:04;28.80;99.90
19908;DHT22;10116;53.112;7.356;2023-06-19T06:47:30;28.80;99.90
19908;DHT22;10116;53.112;7.356;2023-06-19T06:49:56;28.70;99.90
19908;DHT22;10116;53.112;7.356;2023-06-19T06:52:21;28.70;99.90
19908;DHT22;10116;53.112;7.356;2023-06-19T06:54:47;28.70;99.90
19908;DHT22;10116;53.112;7.356;2023-06-19T06:57:13;28.70;99.90
19908;DHT22;10116;53.112;7.356;2023-06-19T06:59:38;28.70;99.90
19908;DHT22;10116;53.112;7.356;2023-06-19T07:02:04;28.70;99.90
19908;DHT22;10116;53.112;7.356;2023-06-19T07:04:29;28.60;99.90
19908;DHT22;10116;53.112;7.356;2023-06-19T07:06:55;28.60;99.90
19908;DHT22;10116;53.112;7.356;2023-06-19T07:09:21;28.60;99.90
19908;DHT22;10116;53.112;7.356;2023-06-19T07:11:46;28.60;99.90
19908;DHT22;10116;53.112;7.356;2023-06-19T07:14:12;28.70;99.90
19908;DHT22;10116;53.112;7.356;2023-06-19T07:16:37;28.70;99.90
19908;DHT22;10116;53.112;7.356;2023-06-19T07:19:03;28.70;99.90
19908;DHT22;10116;53.112;7.356;2023-06-19T07:21:29;28.70;99.90
19908;DHT22;10116;53.112;7.356;2023-06-19T07:23:55;28.70;99.90
19908;DHT22;10116;53.112;7.356;2023-06-19T07:26:21;28.70;99.90
19908;DHT22;10116;53.112;7.356;2023-06-19T07:28:47;28.70;99.90
19908;DHT22;10116;53.112;7.356;2023-06-19T07:31:12;28.70;99.90
19908;DHT22;10116;53.112;7.356;2023-06-19T07:33:38;28.70;99.90
19908;DHT22;10116;53.112;7.356;2023-06-19T07:36:05;28.70;99.90
19908;DHT22;10116;53.112;7.356;2023-06-19T07:38:30;28.70;99.90
19908;DHT22;10116;53.112;7.356;2023-06-19T07:40:56;28.70;99.90
19908;DHT22;10116;53.112;7.356;2023-06-19T07:43:21;28.70;99.90
19908;DHT22;10116;53.112;7.356;2023-06-19T07:45:50;28.70;99.90
19908;DHT22;10116;53.112;7.356;2023-06-19T07:48:15;28.70;99.90
19908;DHT22;10116;53.112;7.356;2023-06-19T07:50:41;28.70;99.90
19908;DHT22;10116;53.112;7.356;2023-06-19T07:53:07;28.70;99.90
19908;DHT22;10116;53.112;7.356;2023-06-19T07:55:32;28.60;99.90
19908;DHT22;10116;53.112;7.356;2023-06-19T07:58:00;28.60;99.90
19908;DHT22;10116;53.112;7.356;2023-06-19T08:00:26;28.60;99.90
19908;DHT22;10116;53.112;7.356;2023-06-19T08:02:51;28.60;99.90
19908;DHT22;10116;53.112;7.356;2023-06-19T08:05:17;28.60;99.90
19908;DHT22;10116;53.112;7.356;2023-06-19T08:07:43;28.60;99.90
19908;DHT22;10116;53.112;7.356;2023-06-19T08:10:09;28.60;99.90
19908;DHT22;10116;53.112;7.356;2023-06-19T08:12:34;28.60;99.90
19908;DHT22;10116;53.112;7.356;2023-06-19T08:15:00;28.60;99.90
19908;DHT22;10116;53.112;7.356;2023-06-19T08:17:25;28.50;99.90
19908;DHT22;10116;53.112;7.356;2023-06-19T08:19:51;28.50;99.90
19908;DHT22;10116;53.112;7.356;2023-06-19T08:22:17;28.50;99.90
19908;DHT22;10116;53.112;7.356;2023-06-19T08:24:42;28.50;99.90
19908;DHT22;10116;53.112;7.356;2023-06-19T08:27:08;28.50;99.90
19908;DHT22;10116;53.112;7.356;2023-06-19T08:29:34;28.50;99.90
19908;DHT22;10116;53.112;7.356;2023-06-19T08:32:00;28.50;99.90
19908;DHT22;10116;53.112;7.356;2023-06-19T08:34:27;28.50;99.90
19908;DHT22;10116;53.112;7.356;2023-06-19T08:36:53;28.50;99.90
19908;DHT22;10116;53.112;7.356;2023-06-19T08:39:18;28.50;99.90
19908;DHT22;10116;53.112;7.356;2023-06-19T08:41:45;28.40;99.90
19908;DHT22;10116;53.112;7.356;2023-06-19T08:44:11;28.40;99.90
19908;DHT22;10116;53.112;7.356;2023-06-19T08:46:36;28.40;99.90
19908;DHT22;10116;53.112;7.356;2023-06-19T08:49:08;28.40;99.90
19908;DHT22;10116;53.112;7.356;2023-06-19T08:51:35;28.40;99.90
19908;DHT22;10116;53.112;7.356;2023-06-19T08:54:03;28.40;99.90
19908;DHT22;10116;53.112;7.356;2023-06-19T08:56:33;28.40;99.90
19908;DHT22;10116;53.112;7.356;2023-06-19T08:59:13;28.40;99.90
19908;DHT22;10116;53.112;7.356;2023-06-19T09:01:40;28.30;99.90
19908;DHT22;10116;53.112;7.356;2023-06-19T09:04:24;28.30;99.90
19908;DHT22;10116;53.112;7.356;2023-06-19T09:06:56;28.30;99.90
19908;DHT22;10116;53.112;7.356;2023-06-19T09:09:23;28.30;99.90
19908;DHT22;10116;53.112;7.356;2023-06-19T09:12:03;28.30;99.90
19908;DHT22;10116;53.112;7.356;2023-06-19T09:17:02;28.30;99.90
19908;DHT22;10116;53.112;7.356;2023-06-19T09:19:29;28.20;99.90
19908;DHT22;10116;53.112;7.356;2023-06-19T09:22:00;28.20;99.90
19908;DHT22;10116;53.112;7.356;2023-06-19T09:24:34;28.20;99.90
19908;DHT22;10116;53.112;7.356;2023-06-19T09:29:36;28.10;99.90
19908;DHT22;10116;53.112;7.356;2023-06-19T09:32:23;28.00;99.90
19908;DHT22;10116;53.112;7.356;2023-06-19T09:34:51;28.00;99.90
19908;DHT22;10116;53.112;7.356;2023-06-19T09:37:23;28.00;99.90
19908;DHT22;10116;53.112;7.356;2023-06-19T09:39:54;28.00;99.90
19908;DHT22;10116;53.112;7.356;2023-06-19T09:44:59;27.90;99.90
19908;DHT22;10116;53.112;7.356;2023-06-19T09:47:25;27.90;99.90
19908;DHT22;10116;53.112;7.356;2023-06-19T09:49:55;27.90;99.90
19908;DHT22;10116;53.112;7.356;2023-06-19T09:52:21;27.90;99.90
19908;DHT22;10116;53.112;7.356;2023-06-19T09:54:53;27.90;99.90
19908;DHT22;10116;53.112;7.356;2023-06-19T09:57:19;27.90;99.90
19908;DHT22;10116;53.112;7.356;2023-06-19T09:59:47;27.90;99.90
19908;DHT22;10116;53.112;7.356;2023-06-19T10:02:15;27.90;99.90
19908;DHT22;10116;53.112;7.356;2023-06-19T10:04:45;27.90;99.90
19908;DHT22;10116;53.112;7.356;2023-06-19T10:07:19;27.90;99.90
19908;DHT22;10116;53.112;7.356;2023-06-19T10:10:02;27.90;99.90
19908;DHT22;10116;53.112;7.356;2023-06-19T10:12:46;28.00;99.90
19908;DHT22;10116;53.112;7.356;2023-06-19T10:15:20;28.00;99.90
19908;DHT22;10116;53.112;7.356;2023-06-19T10:17:47;28.10;99.90
19908;DHT22;10116;53.112;7.356;2023-06-19T10:20:29;28.10;99.90
19908;DHT22;10116;53.112;7.356;2023-06-19T10:23:05;28.10;99.90
19908;DHT22;10116;53.112;7.356;2023-06-19T10:25:36;28.10;99.90
19908;DHT22;10116;53.112;7.356;2023-06-19T10:28:03;28.20;99.90
19908;DHT22;10116;53.112;7.356;2023-06-19T10:30:31;28.20;99.90
19908;DHT22;10116;53.112;7.356;2023-06-19T10:32:59;28.20;99.90
19908;DHT22;10116;53.112;7.356;2023-06-19T10:35:29;28.20;99.90
19908;DHT22;10116;53.112;7.356;2023-06-19T10:38:03;28.20;99.90
19908;DHT22;10116;53.112;7.356;2023-06-19T10:40:29;28.20;99.90
19908;DHT22;10116;53.112;7.356;2023-06-19T10:42:54;28.20;99.90
19908;DHT22;10116;53.112;7.356;2023-06-19T10:45:20;28.20;99.90
19908;DHT22;10116;53.112;7.356;2023-06-19T10:47:51;28.20;99.90
19908;DHT22;10116;53.112;7.356;2023-06-19T10:50:17;28.20;99.90
19908;DHT22;10116;53.112;7.356;2023-06-19T10:52:44;28.10;99.90
19908;DHT22;10116;53.112;7.356;2023-06-19T10:55:10;28.20;99.90
19908;DHT22;10116;53.112;7.356;2023-06-19T10:57:36;28.10;99.90
19908;DHT22;10116;53.112;7.356;2023-06-19T11:00:02;28.10;99.90
19908;DHT22;10116;53.112;7.356;2023-06-19T11:02:37;28.10;99.90
19908;DHT22;10116;53.112;7.356;2023-06-19T11:05:05;28.10;99.90
19908;DHT22;10116;53.112;7.356;2023-06-19T11:07:32;28.10;99.90
19908;DHT22;10116;53.112;7.356;2023-06-19T11:09:57;28.10;99.90
19908;DHT22;10116;53.112;7.356;2023-06-19T11:12:23;28.10;99.90
19908;DHT22;10116;53.112;7.356;2023-06-19T11:14:49;28.10;99.90
19908;DHT22;10116;53.112;7.356;2023-06-19T11:17:16;28.10;99.90
19908;DHT22;10116;53.112;7.356;2023-06-19T11:19:44;28.10;99.90
19908;DHT22;10116;53.112;7.356;2023-06-19T11:22:10;28.10;99.90
19908;DHT22;10116;53.112;7.356;2023-06-19T11:24:36;28.10;99.90
19908;DHT22;10116;53.112;7.356;2023-06-19T11:27:02;28.10;99.90
19908;DHT22;10116;53.112;7.356;2023-06-19T11:29:33;28.10;99.90
19908;DHT22;10116;53.112;7.356;2023-06-19T11:32:12;28.10;99.90
19908;DHT22;10116;53.112;7.356;2023-06-19T11:34:39;28.20;99.90
19908;DHT22;10116;53.112;7.356;2023-06-19T11:37:15;28.20;99.90
19908;DHT22;10116;53.112;7.356;2023-06-19T11:39:44;28.20;99.90
19908;DHT22;10116;53.112;7.356;2023-06-19T11:42:10;28.30;99.90
19908;DHT22;10116;53.112;7.356;2023-06-19T11:44:52;28.30;99.90
19908;DHT22;10116;53.112;7.356;2023-06-19T11:47:18;28.30;99.90
19908;DHT22;10116;53.112;7.356;2023-06-19T11:49:47;28.30;99.90
19908;DHT22;10116;53.112;7.356;2023-06-19T11:52:13;28.40;99.90
19908;DHT22;10116;53.112;7.356;2023-06-19T11:54:39;28.30;99.90
19908;DHT22;10116;53.112;7.356;2023-06-19T11:57:05;28.40;99.90
19908;DHT22;10116;53.112;7.356;2023-06-19T11:59:30;28.40;99.90
19908;DHT22;10116;53.112;7.356;2023-06-19T12:01:56;28.40;99.90
19908;DHT22;10116;53.112;7.356;2023-06-19T12:04:24;28.40;99.90
19908;DHT22;10116;53.112;7.356;2023-06-19T12:06:49;28.40;99.90
19908;DHT22;10116;53.112;7.356;2023-06-19T12:09:15;28.40;99.90
19908;DHT22;10116;53.112;7.356;2023-06-19T12:11:41;28.40;99.90
19908;DHT22;10116;53.112;7.356;2023-06-19T12:14:06;28.50;99.90
19908;DHT22;10116;53.112;7.356;2023-06-19T12:16:32;28.50;99.90
19908;DHT22;10116;53.112;7.356;2023-06-19T12:18:57;28.50;99.90
19908;DHT22;10116;53.112;7.356;2023-06-19T12:21:23;28.50;99.90
19908;DHT22;10116;53.112;7.356;2023-06-19T12:23:49;28.50;99.90
19908;DHT22;10116;53.112;7.356;2023-06-19T12:26:15;28.50;99.90
19908;DHT22;10116;53.112;7.356;2023-06-19T12:28:40;28.50;99.90
19908;DHT22;10116;53.112;7.356;2023-06-19T12:31:06;28.50;99.90
19908;DHT22;10116;53.112;7.356;2023-06-19T12:33:32;28.50;99.90
19908;DHT22;10116;53.112;7.356;2023-06-19T12:35:58;28.60;99.90
19908;DHT22;10116;53.112;7.356;2023-06-19T12:38:24;28.60;99.90
19908;DHT22;10116;53.112;7.356;2023-06-19T12:40:50;28.60;99.90
19908;DHT22;10116;53.112;7.356;2023-06-19T12:43:15;28.60;99.90
19908;DHT22;10116;53.112;7.356;2023-06-19T12:45:41;28.60;99.90
19908;DHT22;10116;53.112;7.356;2023-06-19T12:48:07;28.60;99.90
19908;DHT22;10116;53.112;7.356;2023-06-19T12:50:33;28.60;99.90
19908;DHT22;10116;53.112;7.356;2023-06-19T12:52:58;28.60;99.90
19908;DHT22;10116;53.112;7.356;2023-06-19T12:55:24;28.60;99.90
19908;DHT22;10116;53.112;7.356;2023-06-19T12:57:49;28.60;99.90
19908;DHT22;10116;53.112;7.356;2023-06-19T13:00:15;28.60;99.90
19908;DHT22;10116;53.112;7.356;2023-06-19T13:02:41;28.60;99.90
19908;DHT22;10116;53.112;7.356;2023-06-19T13:05:11;28.60;99.90
19908;DHT22;10116;53.112;7.356;2023-06-19T13:07:36;28.60;99.90
19908;DHT22;10116;53.112;7.356;2023-06-19T13:10:02;28.60;99.90
19908;DHT22;10116;53.112;7.356;2023-06-19T13:12:28;28.60;99.90
19908;DHT22;10116;53.112;7.356;2023-06-19T13:14:54;28.60;99.90
19908;DHT22;10116;53.112;7.356;2023-06-19T13:17:20;28.60;99.90
19908;DHT22;10116;53.112;7.356;2023-06-19T13:19:45;28.60;99.90
19908;DHT22;10116;53.112;7.356;2023-06-19T13:22:11;28.60;99.90
19908;DHT22;10116;53.112;7.356;2023-06-19T13:24:37;28.60;99.90
19908;DHT22;10116;53.112;7.356;2023-06-19T13:27:02;28.70;99.90
19908;DHT22;10116;53.112;7.356;2023-06-19T13:29:28;28.70;99.90
19908;DHT22;10116;53.112;7.356;2023-06-19T13:31:54;28.70;99.90
19908;DHT22;10116;53.112;7.356;2023-06-19T13:34:19;28.80;99.90
19908;DHT22;10116;53.112;7.356;2023-06-19T13:36:47;28.80;99.90
19908;DHT22;10116;53.112;7.356;2023-06-19T13:39:13;28.80;99.90
19908;DHT22;10116;53.112;7.356;2023-06-19T13:41:39;28.80;99.90
19908;DHT22;10116;53.112;7.356;2023-06-19T13:44:04;28.80;99.90
19908;DHT22;10116;53.112;7.356;2023-06-19T13:46:30;28.80;99.90
19908;DHT22;10116;53.112;7.356;2023-06-19T13:48:57;28.80;99.90
19908;DHT22;10116;53.112;7.356;2023-06-19T13:51:23;28.80;99.90
19908;DHT22;10116;53.112;7.356;2023-06-19T13:53:50;28.80;99.90
19908;DHT22;10116;53.112;7.356;2023-06-19T13:56:16;28.80;99.90
19908;DHT22;10116;53.112;7.356;2023-06-19T13:58:41;28.80;99.90
19908;DHT22;10116;53.112;7.356;2023-06-19T14:01:07;28.90;99.90
19908;DHT22;10116;53.112;7.356;2023-06-19T14:03:36;28.90;99.90
19908;DHT22;10116;53.112;7.356;2023-06-19T14:06:02;28.90;99.90
19908;DHT22;10116;53.112;7.356;2023-06-19T14:08:28;28.90;99.90
19908;DHT22;10116;53.112;7.356;2023-06-19T14:10:55;28.90;99.90
19908;DHT22;10116;53.112;7.356;2023-06-19T14:13:20;28.90;99.90
19908;DHT22;10116;53.112;7.356;2023-06-19T14:15:46;28.90;99.90
19908;DHT22;10116;53.112;7.356;2023-06-19T14:18:11;28.90;99.90
19908;DHT22;10116;53.112;7.356;2023-06-19T14:20:37;28.90;99.90
19908;DHT22;10116;53.112;7.356;2023-06-19T14:23:03;28.80;99.90
19908;DHT22;10116;53.112;7.356;2023-06-19T14:25:29;28.80;99.90
19908;DHT22;10116;53.112;7.356;2023-06-19T14:27:54;28.80;99.90
19908;DHT22;10116;53.112;7.356;2023-06-19T14:30:20;28.80;99.90
19908;DHT22;10116;53.112;7.356;2023-06-19T14:32:47;28.80;99.90
19908;DHT22;10116;53.112;7.356;2023-06-19T14:35:13;28.80;99.90
19908;DHT22;10116;53.112;7.356;2023-06-19T14:37:39;28.90;99.90
19908;DHT22;10116;53.112;7.356;2023-06-19T14:40:05;28.90;99.90
19908;DHT22;10116;53.112;7.356;2023-06-19T14:42:31;28.80;99.90
19908;DHT22;10116;53.112;7.356;2023-06-19T14:44:57;28.80;99.90
19908;DHT22;10116;53.112;7.356;2023-06-19T14:47:23;28.80;99.90
19908;DHT22;10116;53.112;7.356;2023-06-19T14:49:50;28.80;99.90
19908;DHT22;10116;53.112;7.356;2023-06-19T14:52:16;28.80;99.90
19908;DHT22;10116;53.112;7.356;2023-06-19T14:54:42;28.80;99.90
19908;DHT22;10116;53.112;7.356;2023-06-19T14:57:08;28.80;99.90
19908;DHT22;10116;53.112;7.356;2023-06-19T14:59:33;28.80;99.90
19908;DHT22;10116;53.112;7.356;2023-06-19T15:01:59;28.80;99.90
19908;DHT22;10116;53.112;7.356;2023-06-19T15:04:25;28.80;99.90
19908;DHT22;10116;53.112;7.356;2023-06-19T15:06:50;28.80;99.90
19908;DHT22;10116;53.112;7.356;2023-06-19T15:09:16;28.90;99.90
19908;DHT22;10116;53.112;7.356;2023-06-19T15:11:42;28.90;99.90
19908;DHT22;10116;53.112;7.356;2023-06-19T15:14:08;28.90;99.90
19908;DHT22;10116;53.112;7.356;2023-06-19T15:16:33;28.90;99.90
19908;DHT22;10116;53.112;7.356;2023-06-19T15:18:59;29.00;99.90
19908;DHT22;10116;53.112;7.356;2023-06-19T15:21:24;29.00;99.90
19908;DHT22;10116;53.112;7.356;2023-06-19T15:23:53;29.00;99.90
19908;DHT22;10116;53.112;7.356;2023-06-19T15:26:19;29.00;99.90
19908;DHT22;10116;53.112;7.356;2023-06-19T15:28:45;29.00;99.90
19908;DHT22;10116;53.112;7.356;2023-06-19T15:31:12;29.00;99.90
19908;DHT22;10116;53.112;7.356;2023-06-19T15:33:38;29.00;99.90
19908;DHT22;10116;53.112;7.356;2023-06-19T15:36:04;29.00;99.90
19908;DHT22;10116;53.112;7.356;2023-06-19T15:38:29;29.00;99.90